createdAt,value
2018-10-02T00:02:06.966Z,1.70
2018-10-02T00:04:36.152Z,1.87
2018-10-02T00:07:05.272Z,1.50
2018-10-02T00:09:34.385Z,1.80
2018-10-02T00:12:08.678Z,1.80
2018-10-02T00:14:38.426Z,2.40
2018-10-02T00:17:07.473Z,1.70
2018-10-02T00:19:36.515Z,1.40
2018-10-02T00:22:05.584Z,1.90
2018-10-02T00:24:34.643Z,2.07
2018-10-02T00:27:03.617Z,2.00
2018-10-02T00:29:32.725Z,1.90
2018-10-02T00:32:01.963Z,2.03
2018-10-02T00:34:32.350Z,1.70
2018-10-02T00:37:01.390Z,1.90
2018-10-02T00:39:30.383Z,2.13
2018-10-02T00:41:59.377Z,2.30
2018-10-02T00:44:28.370Z,1.90
2018-10-02T00:46:57.324Z,1.90
2018-10-02T00:49:26.497Z,2.13
2018-10-02T00:51:55.453Z,2.07
2018-10-02T00:54:24.480Z,2.43
2018-10-02T00:56:53.448Z,1.87
2018-10-02T00:59:22.458Z,1.97
2018-10-02T01:01:51.569Z,2.10
2018-10-02T01:04:20.688Z,2.13
2018-10-02T01:06:49.690Z,2.00
2018-10-02T01:09:18.726Z,2.00
2018-10-02T01:11:47.760Z,2.17
2018-10-02T01:14:16.806Z,2.10
2018-10-02T01:16:45.888Z,1.83
2018-10-02T01:19:14.986Z,2.17
2018-10-02T01:21:43.961Z,2.20
2018-10-02T01:24:13.074Z,2.00
2018-10-02T01:26:42.262Z,1.80
2018-10-02T01:29:11.244Z,1.70
2018-10-02T01:31:40.271Z,1.80
2018-10-02T01:34:09.372Z,1.90
2018-10-02T01:36:38.395Z,2.47
2018-10-02T01:39:09.031Z,1.97
2018-10-02T01:41:38.047Z,1.60
2018-10-02T01:44:07.144Z,2.00
2018-10-02T01:46:36.148Z,1.60
2018-10-02T01:49:05.283Z,2.27
2018-10-02T01:51:34.767Z,1.80
2018-10-02T01:54:03.719Z,1.53
2018-10-02T01:56:32.803Z,1.90
2018-10-02T01:59:01.854Z,1.87
2018-10-02T02:01:37.531Z,1.83
2018-10-02T02:04:06.585Z,2.20
2018-10-02T02:06:36.472Z,1.60
2018-10-02T02:09:06.384Z,2.00
2018-10-02T02:11:35.582Z,1.80
2018-10-02T02:14:04.746Z,2.13
2018-10-02T02:16:33.804Z,1.70
2018-10-02T02:19:02.834Z,2.10
2018-10-02T02:21:31.918Z,2.50
2018-10-02T02:24:00.933Z,2.00
2018-10-02T02:26:29.843Z,2.70
2018-10-02T02:28:58.901Z,2.80
2018-10-02T02:31:27.880Z,2.80
2018-10-02T02:33:56.852Z,2.63
2018-10-02T02:36:25.769Z,2.50
2018-10-02T02:38:54.736Z,3.00
2018-10-02T02:41:23.771Z,2.50
2018-10-02T02:43:52.860Z,2.70
2018-10-02T02:46:21.909Z,3.10
2018-10-02T02:48:56.077Z,2.83
2018-10-02T02:51:31.423Z,3.13
2018-10-02T02:54:00.387Z,3.00
2018-10-02T02:56:29.987Z,3.40
2018-10-02T02:58:59.887Z,3.43
2018-10-02T03:01:29.538Z,3.33
2018-10-02T03:03:58.929Z,3.23
2018-10-02T03:06:27.917Z,3.00
2018-10-02T03:08:56.881Z,3.30
2018-10-02T03:11:25.792Z,3.77
2018-10-02T03:13:54.773Z,3.50
2018-10-02T03:16:23.727Z,3.20
2018-10-02T03:18:53.286Z,3.20
2018-10-02T03:21:22.241Z,3.07
2018-10-02T03:23:51.186Z,3.67
2018-10-02T03:26:20.148Z,3.57
2018-10-02T03:28:49.082Z,3.53
2018-10-02T03:31:18.024Z,3.40
2018-10-02T03:33:46.981Z,3.17
2018-10-02T03:36:15.920Z,3.67
2018-10-02T03:38:45.444Z,3.80
2018-10-02T03:41:14.448Z,4.03
2018-10-02T03:43:43.393Z,3.60
2018-10-02T03:46:12.330Z,3.77
2018-10-02T03:48:41.305Z,3.70
2018-10-02T03:51:10.222Z,3.40
2018-10-02T03:53:39.139Z,4.23
2018-10-02T03:56:08.141Z,3.90
2018-10-02T03:58:37.043Z,4.23
2018-10-02T04:01:06.306Z,4.17
2018-10-02T04:03:35.343Z,3.93
2018-10-02T04:06:04.199Z,3.97
2018-10-02T04:08:33.183Z,3.80
2018-10-02T04:11:02.653Z,3.97
2018-10-02T04:13:31.689Z,4.70
2018-10-02T04:16:00.633Z,4.80
2018-10-02T04:18:29.565Z,4.43
2018-10-02T04:20:58.506Z,5.03
2018-10-02T04:23:27.485Z,4.20
2018-10-02T04:25:56.449Z,5.00
2018-10-02T04:28:25.927Z,4.03
2018-10-02T04:30:54.800Z,4.43
2018-10-02T04:33:23.852Z,4.90
2018-10-02T04:35:53.196Z,4.70
2018-10-02T04:38:22.296Z,5.00
2018-10-02T04:40:51.898Z,5.07
2018-10-02T04:43:20.903Z,4.93
2018-10-02T04:45:50.667Z,4.70
2018-10-02T04:48:19.602Z,6.00
2018-10-02T04:50:49.420Z,5.53
2018-10-02T04:53:21.159Z,5.93
2018-10-02T04:55:50.122Z,6.00
2018-10-02T04:58:19.051Z,5.37
2018-10-02T05:00:48.090Z,5.27
2018-10-02T05:03:17.265Z,6.13
2018-10-02T05:05:46.244Z,6.77
2018-10-02T05:08:15.306Z,6.20
2018-10-02T05:10:44.335Z,6.17
2018-10-02T05:13:13.418Z,6.87
2018-10-02T05:15:42.866Z,7.57
2018-10-02T05:18:11.850Z,6.27
2018-10-02T05:20:41.025Z,6.27
2018-10-02T05:23:10.212Z,6.10
2018-10-02T05:25:39.313Z,5.57
2018-10-02T05:28:08.362Z,6.07
2018-10-02T05:30:37.360Z,5.90
2018-10-02T05:33:06.560Z,6.27
2018-10-02T05:35:35.866Z,5.97
2018-10-02T05:38:04.900Z,5.60
2018-10-02T05:40:33.947Z,4.93
2018-10-02T05:43:02.897Z,5.30
2018-10-02T05:45:31.967Z,5.53
2018-10-02T05:48:01.065Z,5.20
2018-10-02T05:50:30.127Z,4.90
2018-10-02T05:52:59.247Z,5.23
2018-10-02T05:55:28.319Z,5.27
2018-10-02T05:57:57.367Z,5.33
2018-10-02T06:00:26.445Z,5.17
2018-10-02T06:02:55.576Z,4.57
2018-10-02T06:05:24.623Z,4.90
2018-10-02T06:07:53.621Z,4.47
2018-10-02T06:10:22.619Z,4.67
2018-10-02T06:12:51.608Z,4.30
2018-10-02T06:15:20.662Z,4.60
2018-10-02T06:17:49.615Z,3.97
2018-10-02T06:20:23.369Z,4.37
2018-10-02T06:22:53.800Z,4.37
2018-10-02T06:25:22.899Z,4.33
2018-10-02T06:27:51.910Z,3.53
2018-10-02T06:30:20.952Z,3.17
2018-10-02T06:32:50.099Z,3.10
2018-10-02T06:35:19.174Z,3.10
2018-10-02T06:37:48.158Z,3.53
2018-10-02T06:40:17.289Z,3.43
2018-10-02T06:42:46.383Z,2.90
2018-10-02T06:45:15.447Z,3.37
2018-10-02T06:47:44.430Z,3.10
2018-10-02T06:50:13.333Z,3.23
2018-10-02T06:52:42.527Z,2.47
2018-10-02T06:55:11.189Z,2.77
2018-10-02T06:57:40.175Z,3.13
2018-10-02T07:00:09.340Z,3.13
2018-10-02T07:02:38.310Z,2.37
2018-10-02T07:05:07.327Z,2.47
2018-10-02T07:07:36.443Z,2.67
2018-10-02T07:10:06.397Z,2.70
2018-10-02T07:12:35.557Z,2.53
2018-10-02T07:15:04.692Z,3.37
2018-10-02T07:17:34.162Z,3.00
2018-10-02T07:20:03.216Z,3.03
2018-10-02T07:22:32.265Z,2.80
2018-10-02T07:25:01.300Z,3.27
2018-10-02T07:27:31.056Z,2.80
2018-10-02T07:29:59.915Z,2.73
2018-10-02T07:32:29.971Z,3.30
2018-10-02T07:34:58.970Z,3.13
2018-10-02T07:37:28.128Z,2.80
2018-10-02T07:39:57.306Z,2.77
2018-10-02T07:42:26.463Z,2.10
2018-10-02T07:44:56.096Z,2.80
2018-10-02T07:47:25.075Z,2.60
2018-10-02T07:49:54.164Z,2.67
2018-10-02T07:52:24.387Z,3.13
2018-10-02T07:54:54.479Z,2.83
2018-10-02T07:57:23.440Z,2.90
2018-10-02T07:59:52.720Z,2.70
2018-10-02T08:02:21.844Z,2.97
2018-10-02T08:04:51.109Z,3.30
2018-10-02T08:07:20.059Z,3.20
2018-10-02T08:09:49.170Z,2.63
2018-10-02T08:12:18.239Z,2.50
2018-10-02T08:14:47.229Z,2.80
2018-10-02T08:17:16.272Z,2.53
2018-10-02T08:19:45.326Z,2.47
2018-10-02T08:22:14.410Z,2.80
2018-10-02T08:24:43.534Z,2.73
2018-10-02T08:27:12.722Z,2.57
2018-10-02T08:29:41.907Z,2.40
2018-10-02T08:32:10.840Z,2.80
2018-10-02T08:34:39.952Z,2.40
2018-10-02T08:37:09.114Z,3.00
2018-10-02T08:39:38.101Z,2.00
2018-10-02T08:42:07.100Z,2.53
2018-10-02T08:44:36.201Z,2.67
2018-10-02T08:47:05.415Z,2.70
2018-10-02T08:49:34.408Z,2.27
2018-10-02T08:52:03.430Z,2.60
2018-10-02T08:54:32.401Z,2.60
2018-10-02T08:57:01.481Z,2.83
2018-10-02T08:59:30.496Z,2.57
2018-10-02T09:02:10.691Z,2.77
2018-10-02T09:04:39.699Z,2.43
2018-10-02T09:07:09.039Z,2.33
2018-10-02T09:09:38.041Z,2.10
2018-10-02T09:12:07.155Z,2.10
2018-10-02T09:14:36.183Z,1.70
2018-10-02T09:17:05.206Z,1.97
2018-10-02T09:19:34.295Z,2.20
2018-10-02T09:22:03.295Z,2.00
2018-10-02T09:24:32.357Z,1.90
2018-10-02T09:27:01.393Z,2.30
2018-10-02T09:29:30.421Z,2.23
2018-10-02T09:32:05.169Z,2.37
2018-10-02T09:34:39.699Z,1.90
2018-10-02T09:37:14.330Z,2.40
2018-10-02T09:39:48.693Z,2.20
2018-10-02T09:42:23.447Z,2.10
2018-10-02T09:44:52.708Z,2.27
2018-10-02T09:47:21.861Z,2.97
2018-10-02T09:49:51.224Z,2.80
2018-10-02T09:52:20.520Z,2.30
2018-10-02T09:54:50.341Z,2.53
2018-10-02T09:57:19.582Z,2.67
2018-10-02T09:59:52.633Z,2.40
2018-10-02T10:02:27.166Z,1.83
2018-10-02T10:04:56.686Z,1.70
2018-10-02T10:07:25.687Z,1.93
2018-10-02T10:09:54.942Z,2.50
2018-10-02T10:12:24.207Z,1.80
2018-10-02T10:21:42.531Z,2.40
2018-10-02T10:24:11.840Z,2.40
2018-10-02T10:26:41.738Z,1.93
2018-10-02T10:29:11.901Z,2.60
2018-10-02T10:31:41.109Z,2.17
2018-10-02T10:34:11.205Z,2.30
2018-10-02T10:36:40.385Z,2.43
2018-10-02T10:39:10.063Z,5.03
2018-10-02T10:41:40.088Z,2.00
2018-10-02T10:44:09.121Z,1.97
2018-10-02T10:46:38.132Z,2.40
2018-10-02T10:49:07.084Z,2.30
2018-10-02T10:51:36.061Z,2.23
2018-10-02T10:54:05.158Z,2.37
2018-10-02T10:56:34.423Z,2.27
2018-10-02T10:59:04.701Z,2.30
2018-10-02T11:01:33.787Z,2.50
2018-10-02T11:04:02.766Z,2.10
2018-10-02T11:06:31.968Z,2.47
2018-10-02T11:09:01.092Z,2.53
2018-10-02T11:11:30.126Z,2.30
2018-10-02T11:13:59.179Z,2.40
2018-10-02T11:16:28.556Z,2.40
2018-10-02T11:18:57.508Z,2.60
2018-10-02T11:21:26.492Z,3.17
2018-10-02T11:23:56.607Z,3.10
2018-10-02T11:26:25.572Z,3.00
2018-10-02T11:28:54.566Z,3.10
2018-10-02T11:31:23.618Z,2.87
2018-10-02T11:33:52.533Z,3.43
2018-10-02T11:36:21.621Z,2.90
2018-10-02T11:38:50.598Z,2.97
2018-10-02T11:41:19.572Z,2.90
2018-10-02T11:43:48.694Z,3.70
2018-10-02T11:46:18.056Z,2.90
2018-10-02T11:48:47.022Z,2.67
2018-10-02T11:51:16.115Z,2.93
2018-10-02T11:53:45.144Z,3.20
2018-10-02T11:56:14.153Z,2.60
2018-10-02T11:58:43.109Z,2.83
2018-10-02T12:01:12.135Z,2.87
2018-10-02T12:03:41.193Z,2.80
2018-10-02T12:06:10.183Z,2.90
2018-10-02T12:08:39.280Z,3.20
2018-10-02T12:11:08.266Z,2.90
2018-10-02T12:13:37.417Z,3.07
2018-10-02T12:16:06.376Z,3.00
2018-10-02T12:18:35.384Z,2.80
2018-10-02T12:21:04.676Z,2.80
2018-10-02T12:23:33.759Z,3.60
2018-10-02T12:26:02.705Z,3.17
2018-10-02T12:28:31.796Z,2.87
2018-10-02T12:31:00.779Z,2.83
2018-10-02T12:33:29.793Z,2.20
2018-10-02T12:35:58.748Z,2.67
2018-10-02T12:38:27.857Z,2.87
2018-10-02T12:40:56.903Z,2.50
2018-10-02T12:43:25.961Z,2.20
2018-10-02T12:45:54.918Z,2.50
2018-10-02T12:48:25.907Z,2.43
2018-10-02T12:50:54.907Z,2.43
2018-10-02T12:53:23.953Z,2.77
2018-10-02T12:55:52.975Z,3.07
2018-10-02T12:58:21.971Z,2.73
2018-10-02T13:00:51.128Z,2.70
2018-10-02T13:03:20.532Z,3.33
2018-10-02T13:05:50.178Z,3.43
2018-10-02T13:08:29.209Z,3.00
2018-10-02T13:10:58.300Z,3.40
2018-10-02T13:13:30.689Z,3.60
2018-10-02T13:15:59.818Z,3.50
2018-10-02T13:18:28.935Z,3.67
2018-10-02T13:20:57.992Z,4.20
2018-10-02T13:23:27.232Z,3.30
2018-10-02T13:25:56.234Z,4.33
2018-10-02T13:28:25.284Z,3.97
2018-10-02T13:30:54.476Z,3.93
2018-10-02T13:33:23.480Z,4.57
2018-10-02T13:35:52.707Z,4.60
2018-10-02T13:38:22.913Z,4.87
2018-10-02T13:40:52.135Z,4.87
2018-10-02T13:43:21.409Z,5.20
2018-10-02T13:45:50.427Z,5.20
2018-10-02T13:48:19.511Z,5.00
2018-10-02T13:50:49.596Z,4.80
2018-10-02T13:53:19.261Z,4.93
2018-10-02T13:55:48.443Z,5.00
2018-10-02T13:58:17.661Z,5.63
2018-10-02T14:00:46.720Z,5.00
2018-10-02T14:03:16.023Z,5.93
2018-10-02T14:05:45.096Z,5.30
2018-10-02T14:08:14.895Z,5.10
2018-10-02T14:10:44.078Z,4.83
2018-10-02T14:13:13.566Z,5.07
2018-10-02T14:15:42.826Z,6.00
2018-10-02T14:18:11.810Z,5.07
2018-10-02T14:20:40.898Z,5.03
2018-10-02T14:23:10.259Z,5.10
2018-10-02T14:25:39.338Z,6.17
2018-10-02T14:28:08.486Z,5.40
2018-10-02T14:30:37.556Z,5.13
2018-10-02T14:33:06.632Z,5.00
2018-10-02T14:35:35.772Z,4.80
2018-10-02T14:38:05.011Z,4.80
2018-10-02T14:40:34.082Z,4.90
2018-10-02T14:43:03.413Z,4.80
2018-10-02T14:45:32.566Z,4.30
2018-10-02T14:48:01.603Z,4.30
2018-10-02T14:50:31.958Z,4.07
2018-10-02T14:53:01.019Z,4.50
2018-10-02T14:55:30.431Z,3.77
2018-10-02T14:57:59.584Z,4.07
2018-10-02T15:00:28.577Z,4.70
2018-10-02T15:02:57.649Z,4.40
2018-10-02T15:05:27.020Z,3.83
2018-10-02T15:07:59.151Z,4.20
2018-10-02T15:10:28.996Z,4.20
2018-10-02T15:12:58.321Z,5.10
2018-10-02T15:15:30.637Z,4.60
2018-10-02T15:17:59.877Z,5.30
2018-10-02T15:20:29.109Z,5.37
2018-10-02T15:22:58.293Z,5.53
2018-10-02T15:25:27.379Z,5.20
2018-10-02T15:27:58.826Z,5.30
2018-10-02T15:30:28.427Z,5.77
2018-10-02T15:32:57.588Z,5.60
2018-10-02T15:35:26.812Z,5.03
2018-10-02T15:37:55.972Z,6.07
2018-10-02T15:40:25.060Z,5.90
2018-10-02T15:42:54.140Z,5.77
2018-10-02T15:45:23.364Z,6.10
2018-10-02T15:47:52.681Z,5.97
2018-10-02T15:50:22.148Z,6.40
2018-10-02T15:52:51.330Z,5.30
2018-10-02T15:55:20.504Z,5.13
2018-10-02T15:57:49.639Z,5.23
2018-10-02T16:00:19.481Z,5.53
2018-10-02T16:02:48.911Z,5.10
2018-10-02T16:05:18.050Z,4.50
2018-10-02T16:07:47.295Z,5.10
2018-10-02T16:10:16.510Z,4.60
2018-10-02T16:12:45.577Z,5.13
2018-10-02T16:15:14.693Z,4.87
2018-10-02T16:17:43.822Z,5.07
2018-10-02T16:20:12.945Z,4.10
2018-10-02T16:22:42.046Z,4.00
2018-10-02T16:25:11.224Z,4.83
2018-10-02T16:27:40.289Z,4.50
2018-10-02T16:30:09.407Z,4.00
2018-10-02T16:32:38.512Z,4.83
2018-10-02T16:35:07.802Z,4.37
2018-10-02T16:37:36.977Z,4.60
2018-10-02T16:40:06.172Z,5.10
2018-10-02T16:42:35.451Z,4.20
2018-10-02T16:45:04.589Z,3.90
2018-10-02T16:47:34.332Z,3.43
2018-10-02T16:50:03.642Z,3.90
2018-10-02T16:52:32.760Z,4.00
2018-10-02T16:55:10.102Z,3.83
2018-10-02T16:57:39.390Z,4.40
2018-10-02T17:00:09.212Z,4.23
2018-10-02T17:02:38.390Z,3.53
2018-10-02T17:05:07.578Z,3.50
2018-10-02T17:07:36.699Z,4.37
2018-10-02T17:10:05.920Z,3.50
2018-10-02T17:12:35.187Z,4.20
2018-10-02T17:15:04.770Z,3.80
2018-10-02T17:17:34.149Z,3.60
2018-10-02T17:20:03.954Z,4.00
2018-10-02T17:22:32.980Z,3.77
2018-10-02T17:25:03.027Z,4.00
2018-10-02T17:27:32.387Z,4.00
2018-10-02T17:30:01.498Z,3.83
2018-10-02T17:32:30.673Z,3.90
2018-10-02T17:34:59.943Z,4.30
2018-10-02T17:37:29.297Z,4.80
2018-10-02T17:39:59.844Z,5.20
2018-10-02T17:42:29.054Z,5.83
2018-10-02T17:44:58.502Z,5.93
2018-10-02T17:47:29.245Z,6.20
2018-10-02T17:49:58.636Z,4.70
2018-10-02T17:52:28.026Z,5.23
2018-10-02T17:54:57.592Z,5.87
2018-10-02T17:57:26.680Z,7.40
2018-10-02T17:59:56.141Z,5.20
2018-10-02T18:02:25.302Z,5.80
2018-10-02T18:04:54.511Z,5.87
2018-10-02T18:07:23.922Z,5.80
2018-10-02T18:09:52.978Z,5.60
2018-10-02T18:12:22.425Z,6.23
2018-10-02T18:14:51.764Z,5.77
2018-10-02T18:17:22.852Z,6.07
2018-10-02T18:19:54.671Z,6.33
2018-10-02T18:22:33.224Z,6.90
2018-10-02T18:25:06.352Z,6.40
2018-10-02T18:27:39.321Z,7.20
2018-10-02T18:30:13.263Z,7.10
2018-10-02T18:32:42.701Z,6.43
2018-10-02T18:35:12.173Z,6.23
2018-10-02T18:37:41.758Z,7.03
2018-10-02T18:40:11.152Z,7.00
2018-10-02T18:42:40.853Z,6.40
2018-10-02T18:45:10.399Z,9.10
2018-10-02T18:47:40.778Z,6.80
2018-10-02T18:50:11.160Z,7.17
2018-10-02T18:53:09.762Z,6.87
2018-10-02T18:55:52.212Z,7.23
2018-10-02T18:58:37.369Z,9.07
2018-10-02T19:03:57.980Z,9.37
2018-10-02T19:06:43.648Z,8.00
2018-10-02T19:09:27.794Z,9.33
2018-10-02T19:12:07.406Z,9.13
2018-10-02T19:14:48.025Z,9.13
2018-10-02T19:17:35.146Z,8.63
2018-10-02T19:20:11.352Z,9.47
2018-10-02T19:22:44.485Z,9.73
2018-10-02T19:25:28.197Z,9.27
2018-10-02T19:28:01.608Z,9.60
2018-10-02T19:30:41.344Z,9.57
2018-10-02T19:33:29.295Z,10.47
2018-10-02T19:38:48.488Z,10.50
2018-10-02T19:41:32.740Z,10.87
2018-10-02T19:44:41.267Z,10.27
2018-10-02T19:47:11.689Z,10.37
2018-10-02T19:49:41.987Z,10.63
2018-10-02T19:53:41.854Z,10.17
2018-10-02T19:56:18.061Z,9.80
2018-10-02T19:58:53.936Z,9.93
2018-10-02T20:01:27.829Z,10.20
2018-10-02T20:03:58.956Z,11.43
2018-10-02T20:06:34.338Z,9.43
2018-10-02T20:09:18.127Z,18.80
2018-10-02T20:11:57.223Z,10.33
2018-10-02T20:14:32.640Z,9.37
2018-10-02T20:17:04.014Z,10.30
2018-10-02T20:19:45.108Z,10.33
2018-10-02T20:22:34.689Z,9.87
2018-10-02T20:25:29.455Z,10.67
2018-10-02T20:30:40.396Z,10.30
2018-10-02T20:33:14.146Z,10.27
2018-10-02T20:35:46.585Z,10.70
2018-10-02T20:38:16.565Z,9.77
2018-10-02T20:40:48.944Z,9.87
2018-10-02T20:43:21.000Z,9.63
2018-10-02T20:45:52.712Z,11.43
2018-10-02T20:48:30.426Z,10.03
2018-10-02T20:56:57.748Z,9.23
2018-10-02T20:59:28.375Z,8.73
2018-10-02T21:02:03.018Z,8.17
2018-10-02T21:04:57.518Z,8.40
2018-10-02T21:07:51.190Z,8.40
2018-10-02T21:10:32.783Z,9.90
2018-10-02T21:16:04.188Z,9.40
2018-10-02T21:18:35.110Z,9.03
2018-10-02T21:21:11.841Z,8.87
2018-10-02T21:23:44.267Z,7.30
2018-10-02T21:26:22.682Z,8.37
2018-10-02T21:28:56.692Z,6.83
2018-10-02T21:31:34.983Z,6.33
2018-10-02T21:34:08.520Z,13.13
2018-10-02T21:36:38.176Z,6.80
2018-10-02T21:39:10.950Z,12.00
2018-10-02T21:41:45.171Z,5.50
2018-10-02T21:44:17.515Z,5.00
2018-10-02T21:46:49.829Z,6.00
2018-10-02T21:49:23.571Z,5.50
2018-10-02T21:51:53.177Z,5.00
2018-10-02T21:54:24.849Z,4.77
2018-10-02T21:56:54.232Z,4.57
2018-10-02T21:59:23.581Z,5.25
2018-10-02T22:01:53.804Z,4.40
2018-10-02T22:04:28.997Z,4.30
2018-10-02T22:07:02.831Z,4.50
2018-10-02T22:09:36.611Z,4.40
2018-10-02T22:12:13.472Z,4.70
2018-10-02T22:14:42.946Z,4.57
2018-10-02T22:17:12.768Z,5.17
2018-10-02T22:19:42.915Z,4.83
2018-10-02T22:22:13.594Z,3.97
2018-10-02T22:24:45.986Z,5.03
2018-10-02T22:27:20.056Z,4.47
2018-10-02T22:29:53.800Z,4.57
2018-10-02T22:32:23.069Z,4.10
2018-10-02T22:34:53.060Z,4.43
2018-10-02T22:37:22.842Z,3.90
2018-10-02T22:39:53.218Z,3.40
2018-10-02T22:42:26.070Z,3.43
2018-10-02T22:44:56.063Z,3.80
2018-10-02T22:47:25.320Z,3.97
2018-10-02T22:49:54.991Z,3.90
2018-10-02T22:52:24.002Z,3.40
2018-10-02T22:54:53.373Z,3.87
2018-10-02T22:57:22.570Z,3.70
2018-10-02T22:59:52.075Z,10.10
2018-10-02T23:02:21.441Z,3.93
2018-10-02T23:04:50.556Z,21.50
2018-10-02T23:07:20.197Z,7.43
2018-10-02T23:09:49.257Z,3.80
2018-10-02T23:12:18.450Z,3.73
2018-10-02T23:14:47.659Z,4.37
2018-10-02T23:17:16.966Z,3.57
2018-10-02T23:19:46.180Z,4.10
2018-10-02T23:22:15.302Z,3.60
2018-10-02T23:24:44.638Z,3.90
2018-10-02T23:27:13.679Z,3.73
2018-10-02T23:29:43.774Z,3.70
2018-10-02T23:32:13.206Z,3.53
2018-10-02T23:34:42.235Z,3.87
2018-10-02T23:37:11.567Z,4.00
2018-10-02T23:39:40.492Z,3.60
2018-10-02T23:42:09.147Z,4.07
2018-10-02T23:44:37.806Z,4.20
2018-10-02T23:47:06.589Z,4.03
2018-10-02T23:49:35.297Z,3.60
2018-10-02T23:52:05.332Z,3.53
2018-10-02T23:54:34.193Z,5.12
2018-10-02T23:57:02.843Z,4.30
2018-10-02T23:59:31.660Z,3.47
